sensor_id;sensor_type;location;lat;lon;timestamp;P1;durP1;ratioP1;P2;durP2;ratioP2
20621;SDS011;10470;42.670;23.354;2023-04-06T00:00:35;11.63;;;8.27;;
20621;SDS011;10470;42.670;23.354;2023-04-06T00:03:01;10.83;;;8.30;;
20621;SDS011;10470;42.670;23.354;2023-04-06T00:05:26;11.33;;;8.47;;
20621;SDS011;10470;42.670;23.354;2023-04-06T00:07:55;11.33;;;7.90;;
20621;SDS011;10470;42.670;23.354;2023-04-06T00:10:21;11.17;;;7.83;;
20621;SDS011;10470;42.670;23.354;2023-04-06T00:12:46;11.90;;;8.53;;
20621;SDS011;10470;42.670;23.354;2023-04-06T00:15:12;11.30;;;8.07;;
20621;SDS011;10470;42.670;23.354;2023-04-06T00:17:37;12.60;;;8.77;;
20621;SDS011;10470;42.670;23.354;2023-04-06T00:20:03;13.43;;;9.57;;
20621;SDS011;10470;42.670;23.354;2023-04-06T00:22:29;11.50;;;8.50;;
20621;SDS011;10470;42.670;23.354;2023-04-06T00:24:54;12.23;;;8.47;;
20621;SDS011;10470;42.670;23.354;2023-04-06T00:27:20;12.50;;;8.90;;
20621;SDS011;10470;42.670;23.354;2023-04-06T00:29:45;13.87;;;9.53;;
20621;SDS011;10470;42.670;23.354;2023-04-06T00:32:11;11.97;;;9.00;;
20621;SDS011;10470;42.670;23.354;2023-04-06T00:34:36;11.70;;;9.17;;
20621;SDS011;10470;42.670;23.354;2023-04-06T00:37:02;13.30;;;8.80;;
20621;SDS011;10470;42.670;23.354;2023-04-06T00:39:27;12.83;;;8.10;;
20621;SDS011;10470;42.670;23.354;2023-04-06T00:41:52;15.20;;;9.13;;
20621;SDS011;10470;42.670;23.354;2023-04-06T00:44:19;11.30;;;8.00;;
20621;SDS011;10470;42.670;23.354;2023-04-06T00:46:45;12.00;;;8.20;;
20621;SDS011;10470;42.670;23.354;2023-04-06T00:49:11;12.93;;;9.30;;
20621;SDS011;10470;42.670;23.354;2023-04-06T00:51:36;12.43;;;9.07;;
20621;SDS011;10470;42.670;23.354;2023-04-06T00:54:02;15.30;;;9.13;;
20621;SDS011;10470;42.670;23.354;2023-04-06T00:56:27;14.10;;;9.33;;
20621;SDS011;10470;42.670;23.354;2023-04-06T00:58:53;13.40;;;9.50;;
20621;SDS011;10470;42.670;23.354;2023-04-06T01:01:19;13.27;;;9.07;;
20621;SDS011;10470;42.670;23.354;2023-04-06T01:03:45;12.30;;;8.13;;
20621;SDS011;10470;42.670;23.354;2023-04-06T01:06:13;11.73;;;9.20;;
20621;SDS011;10470;42.670;23.354;2023-04-06T01:08:39;11.30;;;7.47;;
20621;SDS011;10470;42.670;23.354;2023-04-06T01:11:05;11.97;;;8.67;;
20621;SDS011;10470;42.670;23.354;2023-04-06T01:13:30;12.27;;;8.33;;
20621;SDS011;10470;42.670;23.354;2023-04-06T01:15:56;10.17;;;7.80;;
20621;SDS011;10470;42.670;23.354;2023-04-06T01:18:25;11.57;;;8.13;;
20621;SDS011;10470;42.670;23.354;2023-04-06T01:20:51;10.50;;;7.13;;
20621;SDS011;10470;42.670;23.354;2023-04-06T01:23:17;11.37;;;6.33;;
20621;SDS011;10470;42.670;23.354;2023-04-06T01:25:42;9.83;;;7.53;;
20621;SDS011;10470;42.670;23.354;2023-04-06T01:28:08;10.30;;;7.67;;
20621;SDS011;10470;42.670;23.354;2023-04-06T01:30:33;10.50;;;7.97;;
20621;SDS011;10470;42.670;23.354;2023-04-06T01:32:59;10.50;;;8.23;;
20621;SDS011;10470;42.670;23.354;2023-04-06T01:35:25;8.53;;;5.93;;
20621;SDS011;10470;42.670;23.354;2023-04-06T01:37:52;10.13;;;7.73;;
20621;SDS011;10470;42.670;23.354;2023-04-06T01:40:17;11.27;;;7.40;;
20621;SDS011;10470;42.670;23.354;2023-04-06T01:42:43;9.60;;;5.77;;
20621;SDS011;10470;42.670;23.354;2023-04-06T01:45:08;9.10;;;7.17;;
20621;SDS011;10470;42.670;23.354;2023-04-06T01:47:34;9.40;;;6.73;;
20621;SDS011;10470;42.670;23.354;2023-04-06T01:50:00;11.07;;;7.87;;
20621;SDS011;10470;42.670;23.354;2023-04-06T01:52:25;9.07;;;7.10;;
20621;SDS011;10470;42.670;23.354;2023-04-06T01:54:51;10.10;;;7.27;;
20621;SDS011;10470;42.670;23.354;2023-04-06T01:57:16;10.90;;;7.57;;
20621;SDS011;10470;42.670;23.354;2023-04-06T01:59:42;11.13;;;7.80;;
20621;SDS011;10470;42.670;23.354;2023-04-06T02:02:08;11.00;;;7.60;;
20621;SDS011;10470;42.670;23.354;2023-04-06T02:04:34;11.37;;;8.10;;
20621;SDS011;10470;42.670;23.354;2023-04-06T02:06:59;10.67;;;7.40;;
20621;SDS011;10470;42.670;23.354;2023-04-06T02:09:25;11.57;;;8.23;;
20621;SDS011;10470;42.670;23.354;2023-04-06T02:11:50;7.70;;;5.20;;
20621;SDS011;10470;42.670;23.354;2023-04-06T02:14:16;10.20;;;7.43;;
20621;SDS011;10470;42.670;23.354;2023-04-06T02:16:41;11.17;;;8.20;;
20621;SDS011;10470;42.670;23.354;2023-04-06T02:19:07;9.27;;;6.40;;
20621;SDS011;10470;42.670;23.354;2023-04-06T02:21:32;10.80;;;7.63;;
20621;SDS011;10470;42.670;23.354;2023-04-06T02:23:57;11.13;;;7.47;;
20621;SDS011;10470;42.670;23.354;2023-04-06T02:26:23;9.17;;;6.70;;
20621;SDS011;10470;42.670;23.354;2023-04-06T02:28:48;9.00;;;6.93;;
20621;SDS011;10470;42.670;23.354;2023-04-06T02:31:14;8.93;;;6.77;;
20621;SDS011;10470;42.670;23.354;2023-04-06T02:33:40;10.23;;;7.63;;
20621;SDS011;10470;42.670;23.354;2023-04-06T02:36:05;10.17;;;7.80;;
20621;SDS011;10470;42.670;23.354;2023-04-06T02:38:31;8.90;;;6.70;;
20621;SDS011;10470;42.670;23.354;2023-04-06T02:40:57;8.67;;;6.30;;
20621;SDS011;10470;42.670;23.354;2023-04-06T02:43:22;10.43;;;7.80;;
20621;SDS011;10470;42.670;23.354;2023-04-06T02:45:47;10.70;;;7.97;;
20621;SDS011;10470;42.670;23.354;2023-04-06T02:48:13;10.40;;;7.10;;
20621;SDS011;10470;42.670;23.354;2023-04-06T02:50:39;10.13;;;7.60;;
20621;SDS011;10470;42.670;23.354;2023-04-06T02:53:05;8.80;;;7.00;;
20621;SDS011;10470;42.670;23.354;2023-04-06T02:55:30;10.27;;;7.27;;
20621;SDS011;10470;42.670;23.354;2023-04-06T02:57:56;10.90;;;7.60;;
20621;SDS011;10470;42.670;23.354;2023-04-06T03:00:21;10.83;;;7.37;;
20621;SDS011;10470;42.670;23.354;2023-04-06T03:02:47;9.80;;;7.07;;
20621;SDS011;10470;42.670;23.354;2023-04-06T03:05:12;10.67;;;7.63;;
20621;SDS011;10470;42.670;23.354;2023-04-06T03:07:38;10.13;;;6.37;;
20621;SDS011;10470;42.670;23.354;2023-04-06T03:10:03;9.57;;;7.23;;
20621;SDS011;10470;42.670;23.354;2023-04-06T03:12:29;6.77;;;4.77;;
20621;SDS011;10470;42.670;23.354;2023-04-06T03:14:54;10.23;;;6.63;;
20621;SDS011;10470;42.670;23.354;2023-04-06T03:17:20;11.07;;;7.10;;
20621;SDS011;10470;42.670;23.354;2023-04-06T03:19:46;9.07;;;6.80;;
20621;SDS011;10470;42.670;23.354;2023-04-06T03:22:11;10.83;;;7.10;;
20621;SDS011;10470;42.670;23.354;2023-04-06T03:24:36;10.33;;;6.87;;
20621;SDS011;10470;42.670;23.354;2023-04-06T03:27:02;9.13;;;6.60;;
20621;SDS011;10470;42.670;23.354;2023-04-06T03:29:27;8.20;;;6.20;;
20621;SDS011;10470;42.670;23.354;2023-04-06T03:31:53;9.13;;;7.23;;
20621;SDS011;10470;42.670;23.354;2023-04-06T03:34:18;10.93;;;7.60;;
20621;SDS011;10470;42.670;23.354;2023-04-06T03:36:44;9.53;;;6.93;;
20621;SDS011;10470;42.670;23.354;2023-04-06T03:39:10;10.70;;;7.00;;
20621;SDS011;10470;42.670;23.354;2023-04-06T03:41:35;8.77;;;6.57;;
20621;SDS011;10470;42.670;23.354;2023-04-06T03:44:01;9.90;;;6.93;;
20621;SDS011;10470;42.670;23.354;2023-04-06T03:46:26;11.23;;;7.77;;
20621;SDS011;10470;42.670;23.354;2023-04-06T03:48:52;11.93;;;7.10;;
20621;SDS011;10470;42.670;23.354;2023-04-06T03:51:17;8.50;;;6.27;;
20621;SDS011;10470;42.670;23.354;2023-04-06T03:53:43;12.20;;;8.63;;
20621;SDS011;10470;42.670;23.354;2023-04-06T03:56:08;9.40;;;6.80;;
20621;SDS011;10470;42.670;23.354;2023-04-06T03:58:34;10.43;;;6.97;;
20621;SDS011;10470;42.670;23.354;2023-04-06T04:00:59;9.97;;;6.70;;
20621;SDS011;10470;42.670;23.354;2023-04-06T04:03:25;9.87;;;7.07;;
20621;SDS011;10470;42.670;23.354;2023-04-06T04:05:52;9.63;;;6.67;;
20621;SDS011;10470;42.670;23.354;2023-04-06T04:08:18;8.77;;;6.87;;
20621;SDS011;10470;42.670;23.354;2023-04-06T04:10:44;8.00;;;6.13;;
20621;SDS011;10470;42.670;23.354;2023-04-06T04:13:09;10.40;;;7.47;;
20621;SDS011;10470;42.670;23.354;2023-04-06T04:15:35;9.50;;;7.03;;
20621;SDS011;10470;42.670;23.354;2023-04-06T04:18:00;11.37;;;7.67;;
20621;SDS011;10470;42.670;23.354;2023-04-06T04:20:26;12.17;;;8.33;;
20621;SDS011;10470;42.670;23.354;2023-04-06T04:22:53;14.60;;;8.37;;
20621;SDS011;10470;42.670;23.354;2023-04-06T04:25:18;10.93;;;7.80;;
20621;SDS011;10470;42.670;23.354;2023-04-06T04:27:44;9.87;;;7.00;;
20621;SDS011;10470;42.670;23.354;2023-04-06T04:30:09;12.40;;;8.40;;
20621;SDS011;10470;42.670;23.354;2023-04-06T04:32:35;15.23;;;8.97;;
20621;SDS011;10470;42.670;23.354;2023-04-06T04:35:01;12.80;;;7.57;;
20621;SDS011;10470;42.670;23.354;2023-04-06T04:37:26;11.97;;;8.13;;
20621;SDS011;10470;42.670;23.354;2023-04-06T04:39:52;9.30;;;6.13;;
20621;SDS011;10470;42.670;23.354;2023-04-06T04:42:17;12.27;;;7.27;;
20621;SDS011;10470;42.670;23.354;2023-04-06T04:44:42;9.43;;;6.70;;
20621;SDS011;10470;42.670;23.354;2023-04-06T04:47:08;10.77;;;7.83;;
20621;SDS011;10470;42.670;23.354;2023-04-06T04:49:33;11.87;;;7.40;;
20621;SDS011;10470;42.670;23.354;2023-04-06T04:51:59;12.70;;;8.77;;
20621;SDS011;10470;42.670;23.354;2023-04-06T04:54:24;6.40;;;4.63;;
20621;SDS011;10470;42.670;23.354;2023-04-06T04:56:50;12.63;;;8.23;;
20621;SDS011;10470;42.670;23.354;2023-04-06T04:59:16;12.83;;;8.37;;
20621;SDS011;10470;42.670;23.354;2023-04-06T05:01:42;11.37;;;8.10;;
20621;SDS011;10470;42.670;23.354;2023-04-06T05:04:07;11.93;;;8.10;;
20621;SDS011;10470;42.670;23.354;2023-04-06T05:06:33;15.43;;;8.17;;
20621;SDS011;10470;42.670;23.354;2023-04-06T05:08:58;11.63;;;7.03;;
20621;SDS011;10470;42.670;23.354;2023-04-06T05:11:23;12.43;;;7.27;;
20621;SDS011;10470;42.670;23.354;2023-04-06T05:13:50;12.83;;;8.50;;
20621;SDS011;10470;42.670;23.354;2023-04-06T05:16:16;14.27;;;8.73;;
20621;SDS011;10470;42.670;23.354;2023-04-06T05:18:41;10.50;;;7.00;;
20621;SDS011;10470;42.670;23.354;2023-04-06T05:21:07;12.17;;;8.70;;
20621;SDS011;10470;42.670;23.354;2023-04-06T05:23:32;13.47;;;8.57;;
20621;SDS011;10470;42.670;23.354;2023-04-06T05:25:58;13.90;;;8.70;;
20621;SDS011;10470;42.670;23.354;2023-04-06T05:28:23;13.13;;;8.40;;
20621;SDS011;10470;42.670;23.354;2023-04-06T05:30:49;13.33;;;9.17;;
20621;SDS011;10470;42.670;23.354;2023-04-06T05:33:15;15.17;;;9.93;;
20621;SDS011;10470;42.670;23.354;2023-04-06T05:35:40;16.83;;;11.20;;
20621;SDS011;10470;42.670;23.354;2023-04-06T05:38:07;14.77;;;10.47;;
20621;SDS011;10470;42.670;23.354;2023-04-06T05:40:34;16.40;;;10.67;;
20621;SDS011;10470;42.670;23.354;2023-04-06T05:42:59;16.57;;;10.70;;
20621;SDS011;10470;42.670;23.354;2023-04-06T05:45:25;16.80;;;11.17;;
20621;SDS011;10470;42.670;23.354;2023-04-06T05:47:51;18.10;;;11.40;;
20621;SDS011;10470;42.670;23.354;2023-04-06T05:50:16;19.57;;;10.63;;
20621;SDS011;10470;42.670;23.354;2023-04-06T05:52:42;17.33;;;11.87;;
20621;SDS011;10470;42.670;23.354;2023-04-06T05:55:10;18.93;;;11.70;;
20621;SDS011;10470;42.670;23.354;2023-04-06T05:57:36;22.27;;;10.87;;
20621;SDS011;10470;42.670;23.354;2023-04-06T06:00:02;17.43;;;10.87;;
20621;SDS011;10470;42.670;23.354;2023-04-06T06:02:30;19.80;;;12.20;;
20621;SDS011;10470;42.670;23.354;2023-04-06T06:04:56;17.17;;;11.33;;
20621;SDS011;10470;42.670;23.354;2023-04-06T06:07:22;17.37;;;11.23;;
20621;SDS011;10470;42.670;23.354;2023-04-06T06:09:48;18.03;;;11.53;;
20621;SDS011;10470;42.670;23.354;2023-04-06T06:12:14;19.53;;;12.17;;
20621;SDS011;10470;42.670;23.354;2023-04-06T06:14:40;19.63;;;12.10;;
20621;SDS011;10470;42.670;23.354;2023-04-06T06:17:05;23.13;;;13.27;;
20621;SDS011;10470;42.670;23.354;2023-04-06T06:19:30;20.00;;;12.33;;
20621;SDS011;10470;42.670;23.354;2023-04-06T06:21:56;20.37;;;13.37;;
20621;SDS011;10470;42.670;23.354;2023-04-06T06:24:21;20.20;;;12.70;;
20621;SDS011;10470;42.670;23.354;2023-04-06T06:26:47;18.13;;;12.33;;
20621;SDS011;10470;42.670;23.354;2023-04-06T06:29:14;18.77;;;12.37;;
20621;SDS011;10470;42.670;23.354;2023-04-06T06:31:40;18.70;;;11.67;;
20621;SDS011;10470;42.670;23.354;2023-04-06T06:34:05;19.50;;;11.97;;
20621;SDS011;10470;42.670;23.354;2023-04-06T06:36:31;20.13;;;10.77;;
20621;SDS011;10470;42.670;23.354;2023-04-06T06:38:57;18.87;;;11.57;;
20621;SDS011;10470;42.670;23.354;2023-04-06T06:41:24;18.03;;;11.97;;
20621;SDS011;10470;42.670;23.354;2023-04-06T06:43:51;21.10;;;12.53;;
20621;SDS011;10470;42.670;23.354;2023-04-06T06:46:16;17.77;;;11.50;;
20621;SDS011;10470;42.670;23.354;2023-04-06T06:48:42;19.47;;;12.07;;
20621;SDS011;10470;42.670;23.354;2023-04-06T06:51:07;18.23;;;11.40;;
20621;SDS011;10470;42.670;23.354;2023-04-06T06:53:34;17.43;;;11.77;;
20621;SDS011;10470;42.670;23.354;2023-04-06T06:56:00;22.27;;;13.23;;
20621;SDS011;10470;42.670;23.354;2023-04-06T06:58:25;17.63;;;11.23;;
20621;SDS011;10470;42.670;23.354;2023-04-06T07:00:55;13.37;;;8.67;;
20621;SDS011;10470;42.670;23.354;2023-04-06T07:03:24;16.00;;;10.57;;
20621;SDS011;10470;42.670;23.354;2023-04-06T07:05:50;17.53;;;10.80;;
20621;SDS011;10470;42.670;23.354;2023-04-06T07:08:22;18.60;;;11.23;;
20621;SDS011;10470;42.670;23.354;2023-04-06T07:10:50;16.80;;;10.97;;
20621;SDS011;10470;42.670;23.354;2023-04-06T07:13:21;13.57;;;8.93;;
20621;SDS011;10470;42.670;23.354;2023-04-06T07:15:48;15.67;;;9.63;;
20621;SDS011;10470;42.670;23.354;2023-04-06T07:18:15;11.20;;;7.10;;
20621;SDS011;10470;42.670;23.354;2023-04-06T07:20:41;17.40;;;11.37;;
20621;SDS011;10470;42.670;23.354;2023-04-06T07:23:07;15.70;;;9.30;;
20621;SDS011;10470;42.670;23.354;2023-04-06T07:25:32;15.93;;;10.30;;
20621;SDS011;10470;42.670;23.354;2023-04-06T07:27:58;14.87;;;9.90;;
20621;SDS011;10470;42.670;23.354;2023-04-06T07:30:23;15.93;;;10.50;;
20621;SDS011;10470;42.670;23.354;2023-04-06T07:32:51;13.30;;;8.97;;
20621;SDS011;10470;42.670;23.354;2023-04-06T07:35:16;17.47;;;11.30;;
20621;SDS011;10470;42.670;23.354;2023-04-06T07:37:42;16.73;;;10.30;;
20621;SDS011;10470;42.670;23.354;2023-04-06T07:40:08;16.20;;;10.57;;
20621;SDS011;10470;42.670;23.354;2023-04-06T07:42:33;12.37;;;8.40;;
20621;SDS011;10470;42.670;23.354;2023-04-06T07:44:59;14.27;;;9.50;;
20621;SDS011;10470;42.670;23.354;2023-04-06T07:47:24;12.87;;;8.83;;
20621;SDS011;10470;42.670;23.354;2023-04-06T07:49:50;13.47;;;9.17;;
20621;SDS011;10470;42.670;23.354;2023-04-06T07:52:15;16.20;;;10.93;;
20621;SDS011;10470;42.670;23.354;2023-04-06T07:54:41;20.30;;;11.60;;
20621;SDS011;10470;42.670;23.354;2023-04-06T07:57:07;17.93;;;12.03;;
20621;SDS011;10470;42.670;23.354;2023-04-06T07:59:32;18.10;;;12.27;;
20621;SDS011;10470;42.670;23.354;2023-04-06T08:01:58;16.93;;;10.40;;
20621;SDS011;10470;42.670;23.354;2023-04-06T08:04:23;16.67;;;10.97;;
20621;SDS011;10470;42.670;23.354;2023-04-06T08:06:49;15.30;;;11.27;;
20621;SDS011;10470;42.670;23.354;2023-04-06T08:09:14;19.50;;;11.17;;
20621;SDS011;10470;42.670;23.354;2023-04-06T08:11:40;19.27;;;11.53;;
20621;SDS011;10470;42.670;23.354;2023-04-06T08:14:05;16.73;;;10.33;;
20621;SDS011;10470;42.670;23.354;2023-04-06T08:16:31;16.63;;;11.03;;
20621;SDS011;10470;42.670;23.354;2023-04-06T08:18:56;17.00;;;10.23;;
20621;SDS011;10470;42.670;23.354;2023-04-06T08:21:22;16.20;;;9.40;;
20621;SDS011;10470;42.670;23.354;2023-04-06T08:23:47;11.80;;;8.83;;
20621;SDS011;10470;42.670;23.354;2023-04-06T08:26:13;11.27;;;7.97;;
20621;SDS011;10470;42.670;23.354;2023-04-06T08:28:38;15.37;;;9.93;;
20621;SDS011;10470;42.670;23.354;2023-04-06T08:31:04;15.53;;;8.60;;
20621;SDS011;10470;42.670;23.354;2023-04-06T08:33:30;10.97;;;8.30;;
20621;SDS011;10470;42.670;23.354;2023-04-06T08:35:56;14.97;;;9.77;;
20621;SDS011;10470;42.670;23.354;2023-04-06T08:38:22;14.17;;;9.47;;
20621;SDS011;10470;42.670;23.354;2023-04-06T08:40:47;14.00;;;9.20;;
20621;SDS011;10470;42.670;23.354;2023-04-06T08:43:14;15.07;;;10.47;;
20621;SDS011;10470;42.670;23.354;2023-04-06T08:45:42;14.63;;;8.70;;
20621;SDS011;10470;42.670;23.354;2023-04-06T08:48:08;16.73;;;11.00;;
20621;SDS011;10470;42.670;23.354;2023-04-06T08:50:35;16.87;;;9.97;;
20621;SDS011;10470;42.670;23.354;2023-04-06T08:53:00;14.00;;;9.73;;
20621;SDS011;10470;42.670;23.354;2023-04-06T08:55:26;7.63;;;5.97;;
20621;SDS011;10470;42.670;23.354;2023-04-06T08:57:52;10.83;;;7.50;;
20621;SDS011;10470;42.670;23.354;2023-04-06T09:00:20;10.40;;;7.33;;
20621;SDS011;10470;42.670;23.354;2023-04-06T09:02:46;13.57;;;8.70;;
20621;SDS011;10470;42.670;23.354;2023-04-06T09:05:14;10.87;;;7.53;;
20621;SDS011;10470;42.670;23.354;2023-04-06T09:07:40;13.57;;;7.83;;
20621;SDS011;10470;42.670;23.354;2023-04-06T09:10:06;12.73;;;8.53;;
20621;SDS011;10470;42.670;23.354;2023-04-06T09:12:32;14.83;;;9.40;;
20621;SDS011;10470;42.670;23.354;2023-04-06T09:14:58;10.37;;;7.53;;
20621;SDS011;10470;42.670;23.354;2023-04-06T09:17:26;9.70;;;6.97;;
20621;SDS011;10470;42.670;23.354;2023-04-06T09:19:53;14.50;;;7.63;;
20621;SDS011;10470;42.670;23.354;2023-04-06T09:22:19;11.60;;;8.33;;
20621;SDS011;10470;42.670;23.354;2023-04-06T09:24:46;12.90;;;8.43;;
20621;SDS011;10470;42.670;23.354;2023-04-06T09:27:13;13.93;;;8.37;;
20621;SDS011;10470;42.670;23.354;2023-04-06T09:29:40;14.57;;;9.77;;
20621;SDS011;10470;42.670;23.354;2023-04-06T09:32:07;12.13;;;8.00;;
20621;SDS011;10470;42.670;23.354;2023-04-06T09:34:35;10.83;;;8.10;;
20621;SDS011;10470;42.670;23.354;2023-04-06T09:37:11;13.07;;;8.83;;
20621;SDS011;10470;42.670;23.354;2023-04-06T09:39:39;12.73;;;6.17;;
20621;SDS011;10470;42.670;23.354;2023-04-06T09:42:05;13.93;;;9.20;;
20621;SDS011;10470;42.670;23.354;2023-04-06T09:44:31;15.73;;;10.10;;
20621;SDS011;10470;42.670;23.354;2023-04-06T09:46:56;11.90;;;8.93;;
20621;SDS011;10470;42.670;23.354;2023-04-06T09:49:22;8.90;;;6.83;;
20621;SDS011;10470;42.670;23.354;2023-04-06T09:51:59;9.63;;;6.97;;
20621;SDS011;10470;42.670;23.354;2023-04-06T09:54:28;10.53;;;7.30;;
20621;SDS011;10470;42.670;23.354;2023-04-06T09:57:03;14.90;;;9.40;;
20621;SDS011;10470;42.670;23.354;2023-04-06T10:08:15;11.20;;;8.23;;
20621;SDS011;10470;42.670;23.354;2023-04-06T10:10:43;8.97;;;6.33;;
20621;SDS011;10470;42.670;23.354;2023-04-06T10:13:09;11.73;;;8.50;;
20621;SDS011;10470;42.670;23.354;2023-04-06T10:15:36;9.07;;;7.17;;
20621;SDS011;10470;42.670;23.354;2023-04-06T10:18:03;11.77;;;8.83;;
20621;SDS011;10470;42.670;23.354;2023-04-06T10:26:01;10.53;;;7.40;;
20621;SDS011;10470;42.670;23.354;2023-04-06T10:28:34;8.90;;;7.50;;
20621;SDS011;10470;42.670;23.354;2023-04-06T10:31:02;9.13;;;6.60;;
20621;SDS011;10470;42.670;23.354;2023-04-06T10:33:30;8.90;;;7.27;;
20621;SDS011;10470;42.670;23.354;2023-04-06T10:35:55;11.53;;;8.03;;
20621;SDS011;10470;42.670;23.354;2023-04-06T10:38:21;9.97;;;7.73;;
20621;SDS011;10470;42.670;23.354;2023-04-06T10:41:03;8.10;;;6.57;;
20621;SDS011;10470;42.670;23.354;2023-04-06T10:43:32;12.50;;;8.63;;
20621;SDS011;10470;42.670;23.354;2023-04-06T10:46:00;10.97;;;8.57;;
20621;SDS011;10470;42.670;23.354;2023-04-06T10:48:36;11.13;;;7.97;;
20621;SDS011;10470;42.670;23.354;2023-04-06T10:51:14;10.83;;;8.87;;
20621;SDS011;10470;42.670;23.354;2023-04-06T10:53:41;10.27;;;8.13;;
20621;SDS011;10470;42.670;23.354;2023-04-06T10:56:15;12.30;;;8.63;;
20621;SDS011;10470;42.670;23.354;2023-04-06T10:58:48;11.27;;;8.63;;
20621;SDS011;10470;42.670;23.354;2023-04-06T11:01:18;13.63;;;9.10;;
20621;SDS011;10470;42.670;23.354;2023-04-06T11:03:48;10.10;;;8.30;;
20621;SDS011;10470;42.670;23.354;2023-04-06T11:06:22;12.53;;;8.93;;
20621;SDS011;10470;42.670;23.354;2023-04-06T11:08:50;10.30;;;8.20;;
20621;SDS011;10470;42.670;23.354;2023-04-06T11:11:17;11.23;;;8.67;;
20621;SDS011;10470;42.670;23.354;2023-04-06T11:16:20;9.77;;;8.40;;
20621;SDS011;10470;42.670;23.354;2023-04-06T11:18:54;11.23;;;8.53;;
20621;SDS011;10470;42.670;23.354;2023-04-06T11:24:11;12.03;;;8.50;;
20621;SDS011;10470;42.670;23.354;2023-04-06T11:26:50;12.90;;;8.47;;
20621;SDS011;10470;42.670;23.354;2023-04-06T11:29:23;11.67;;;8.50;;
20621;SDS011;10470;42.670;23.354;2023-04-06T11:31:52;10.60;;;8.40;;
20621;SDS011;10470;42.670;23.354;2023-04-06T11:34:19;10.77;;;8.17;;
20621;SDS011;10470;42.670;23.354;2023-04-06T11:36:47;10.07;;;8.27;;
20621;SDS011;10470;42.670;23.354;2023-04-06T11:39:18;9.83;;;7.13;;
20621;SDS011;10470;42.670;23.354;2023-04-06T11:41:48;10.70;;;8.00;;
20621;SDS011;10470;42.670;23.354;2023-04-06T11:44:15;10.50;;;8.80;;
20621;SDS011;10470;42.670;23.354;2023-04-06T11:46:40;10.90;;;8.30;;
20621;SDS011;10470;42.670;23.354;2023-04-06T11:49:06;9.43;;;8.30;;
20621;SDS011;10470;42.670;23.354;2023-04-06T11:51:35;12.10;;;8.63;;
20621;SDS011;10470;42.670;23.354;2023-04-06T11:54:02;11.67;;;8.97;;
20621;SDS011;10470;42.670;23.354;2023-04-06T11:56:28;12.77;;;9.37;;
20621;SDS011;10470;42.670;23.354;2023-04-06T11:58:55;11.30;;;9.27;;
20621;SDS011;10470;42.670;23.354;2023-04-06T12:01:21;11.93;;;8.20;;
20621;SDS011;10470;42.670;23.354;2023-04-06T12:03:47;12.90;;;8.70;;
20621;SDS011;10470;42.670;23.354;2023-04-06T12:06:13;12.23;;;9.40;;
20621;SDS011;10470;42.670;23.354;2023-04-06T12:08:38;12.27;;;9.90;;
20621;SDS011;10470;42.670;23.354;2023-04-06T12:11:04;13.87;;;8.90;;
20621;SDS011;10470;42.670;23.354;2023-04-06T12:13:30;13.07;;;9.47;;
20621;SDS011;10470;42.670;23.354;2023-04-06T12:15:55;9.57;;;8.13;;
20621;SDS011;10470;42.670;23.354;2023-04-06T12:18:21;9.27;;;7.93;;
20621;SDS011;10470;42.670;23.354;2023-04-06T12:20:46;10.67;;;8.70;;
20621;SDS011;10470;42.670;23.354;2023-04-06T12:23:12;10.47;;;8.00;;
20621;SDS011;10470;42.670;23.354;2023-04-06T12:25:39;12.53;;;9.03;;
20621;SDS011;10470;42.670;23.354;2023-04-06T12:28:05;12.80;;;9.40;;
20621;SDS011;10470;42.670;23.354;2023-04-06T12:30:31;13.07;;;9.53;;
20621;SDS011;10470;42.670;23.354;2023-04-06T12:32:57;10.93;;;8.63;;
20621;SDS011;10470;42.670;23.354;2023-04-06T12:35:23;12.60;;;9.80;;
20621;SDS011;10470;42.670;23.354;2023-04-06T12:37:48;11.00;;;8.20;;
20621;SDS011;10470;42.670;23.354;2023-04-06T12:40:13;13.53;;;9.30;;
20621;SDS011;10470;42.670;23.354;2023-04-06T12:42:39;13.93;;;10.17;;
20621;SDS011;10470;42.670;23.354;2023-04-06T12:45:08;15.10;;;9.20;;
20621;SDS011;10470;42.670;23.354;2023-04-06T12:47:34;13.03;;;9.30;;
20621;SDS011;10470;42.670;23.354;2023-04-06T12:50:01;12.03;;;8.40;;
20621;SDS011;10470;42.670;23.354;2023-04-06T12:52:27;12.27;;;8.40;;
20621;SDS011;10470;42.670;23.354;2023-04-06T12:54:55;13.27;;;9.83;;
20621;SDS011;10470;42.670;23.354;2023-04-06T12:57:21;10.67;;;8.50;;
20621;SDS011;10470;42.670;23.354;2023-04-06T12:59:47;10.23;;;8.50;;
20621;SDS011;10470;42.670;23.354;2023-04-06T13:02:12;10.63;;;8.70;;
20621;SDS011;10470;42.670;23.354;2023-04-06T13:04:38;12.43;;;8.27;;
20621;SDS011;10470;42.670;23.354;2023-04-06T13:07:04;11.97;;;8.03;;
20621;SDS011;10470;42.670;23.354;2023-04-06T13:09:29;12.00;;;8.90;;
20621;SDS011;10470;42.670;23.354;2023-04-06T13:11:55;10.60;;;8.80;;
20621;SDS011;10470;42.670;23.354;2023-04-06T13:14:21;11.53;;;8.40;;
20621;SDS011;10470;42.670;23.354;2023-04-06T13:16:47;11.40;;;8.77;;
20621;SDS011;10470;42.670;23.354;2023-04-06T13:19:12;10.17;;;8.13;;
20621;SDS011;10470;42.670;23.354;2023-04-06T13:21:38;13.73;;;8.67;;
20621;SDS011;10470;42.670;23.354;2023-04-06T13:24:04;11.97;;;9.13;;
20621;SDS011;10470;42.670;23.354;2023-04-06T13:26:30;10.63;;;8.93;;
20621;SDS011;10470;42.670;23.354;2023-04-06T13:28:56;14.17;;;8.80;;
20621;SDS011;10470;42.670;23.354;2023-04-06T13:31:21;13.97;;;9.03;;
20621;SDS011;10470;42.670;23.354;2023-04-06T13:33:47;11.50;;;8.43;;
20621;SDS011;10470;42.670;23.354;2023-04-06T13:36:12;13.07;;;9.67;;
20621;SDS011;10470;42.670;23.354;2023-04-06T13:38:38;12.17;;;9.13;;
20621;SDS011;10470;42.670;23.354;2023-04-06T13:41:04;13.20;;;9.43;;
20621;SDS011;10470;42.670;23.354;2023-04-06T13:43:30;13.80;;;9.37;;
20621;SDS011;10470;42.670;23.354;2023-04-06T13:45:56;14.20;;;9.10;;
20621;SDS011;10470;42.670;23.354;2023-04-06T13:48:24;9.47;;;7.23;;
20621;SDS011;10470;42.670;23.354;2023-04-06T13:50:51;9.77;;;7.70;;
20621;SDS011;10470;42.670;23.354;2023-04-06T13:53:17;9.47;;;8.07;;
20621;SDS011;10470;42.670;23.354;2023-04-06T13:55:43;11.57;;;8.30;;
20621;SDS011;10470;42.670;23.354;2023-04-06T13:58:08;11.37;;;8.03;;
20621;SDS011;10470;42.670;23.354;2023-04-06T14:00:34;10.77;;;7.63;;
20621;SDS011;10470;42.670;23.354;2023-04-06T14:03:00;10.37;;;7.90;;
20621;SDS011;10470;42.670;23.354;2023-04-06T14:05:26;9.50;;;7.90;;
20621;SDS011;10470;42.670;23.354;2023-04-06T14:07:55;10.90;;;8.33;;
20621;SDS011;10470;42.670;23.354;2023-04-06T14:10:20;10.20;;;8.20;;
20621;SDS011;10470;42.670;23.354;2023-04-06T14:12:48;8.30;;;5.53;;
20621;SDS011;10470;42.670;23.354;2023-04-06T14:15:14;12.13;;;8.20;;
20621;SDS011;10470;42.670;23.354;2023-04-06T14:17:40;8.17;;;7.10;;
20621;SDS011;10470;42.670;23.354;2023-04-06T14:20:06;8.53;;;7.37;;
20621;SDS011;10470;42.670;23.354;2023-04-06T14:22:32;8.97;;;7.27;;
20621;SDS011;10470;42.670;23.354;2023-04-06T14:24:58;10.10;;;7.70;;
20621;SDS011;10470;42.670;23.354;2023-04-06T14:27:24;11.47;;;7.87;;
20621;SDS011;10470;42.670;23.354;2023-04-06T14:29:50;10.53;;;8.33;;
20621;SDS011;10470;42.670;23.354;2023-04-06T14:32:15;10.50;;;8.00;;
20621;SDS011;10470;42.670;23.354;2023-04-06T14:34:41;12.83;;;8.30;;